createdAt,value
2023-04-03T00:00:25.524Z,2.00
2023-04-03T00:03:29.377Z,1.70
2023-04-03T00:06:33.114Z,1.60
2023-04-03T00:09:38.512Z,1.63
2023-04-03T00:12:42.009Z,1.53
2023-04-03T00:15:45.753Z,1.70
2023-04-03T00:18:49.464Z,1.40
2023-04-03T00:21:54.692Z,1.43
2023-04-03T00:24:59.944Z,1.60
2023-04-03T00:28:04.352Z,1.43
2023-04-03T00:31:07.913Z,1.40
2023-04-03T00:34:12.787Z,1.40
2023-04-03T00:37:16.573Z,1.60
2023-04-03T00:40:24.262Z,1.30
2023-04-03T00:43:28.766Z,1.27
2023-04-03T00:46:32.428Z,1.27
2023-04-03T00:49:36.494Z,1.43
2023-04-03T00:52:41.553Z,1.43
2023-04-03T00:55:48.874Z,1.50
2023-04-03T00:58:56.552Z,1.47
2023-04-03T01:02:01.623Z,1.50
2023-04-03T01:05:06.334Z,1.50
2023-04-03T01:08:10.885Z,1.40
2023-04-03T01:11:16.262Z,1.67
2023-04-03T01:14:21.024Z,1.50
2023-04-03T01:17:31.768Z,1.83
2023-04-03T01:21:12.215Z,1.90
2023-04-03T01:24:34.813Z,1.63
2023-04-03T01:27:42.054Z,1.87
2023-04-03T01:30:50.137Z,1.77
2023-04-03T01:33:56.654Z,1.77
2023-04-03T01:37:01.086Z,2.10
2023-04-03T01:40:05.323Z,1.83
2023-04-03T01:43:09.443Z,1.93
2023-04-03T01:46:13.184Z,1.73
2023-04-03T01:49:18.624Z,1.70
2023-04-03T01:52:22.544Z,2.13
2023-04-03T01:55:28.333Z,2.17
2023-04-03T01:58:31.955Z,2.40
2023-04-03T02:01:35.692Z,2.30
2023-04-03T02:04:41.038Z,2.67
2023-04-03T02:07:44.661Z,2.63
2023-04-03T02:10:50.066Z,2.37
2023-04-03T02:13:54.312Z,2.20
2023-04-03T02:16:58.068Z,2.53
2023-04-03T02:20:04.317Z,2.13
2023-04-03T02:23:08.187Z,2.00
2023-04-03T02:26:14.335Z,2.23
2023-04-03T02:29:18.061Z,2.03
2023-04-03T02:32:21.745Z,1.90
2023-04-03T02:35:27.244Z,2.00
2023-04-03T02:38:34.016Z,2.03
2023-04-03T02:41:37.735Z,2.30
2023-04-03T02:44:47.101Z,1.90
2023-04-03T02:47:50.848Z,2.43
2023-04-03T02:50:56.402Z,1.47
2023-04-03T02:53:59.996Z,1.90
2023-04-03T02:57:10.084Z,1.60
2023-04-03T03:00:15.654Z,1.80
2023-04-03T03:03:19.332Z,1.97
2023-04-03T03:06:24.439Z,2.27
2023-04-03T03:09:28.207Z,1.83
2023-04-03T03:12:32.687Z,2.07
2023-04-03T03:15:37.311Z,2.23
2023-04-03T03:18:40.997Z,2.00
2023-04-03T03:21:46.333Z,2.10
2023-04-03T03:24:49.874Z,2.07
2023-04-03T03:27:53.534Z,2.33
2023-04-03T03:30:58.000Z,2.47
2023-04-03T03:34:01.902Z,2.13
2023-04-03T03:37:07.061Z,1.80
2023-04-03T03:40:14.218Z,2.20
2023-04-03T03:43:18.383Z,2.50
2023-04-03T03:46:23.790Z,2.10
2023-04-03T03:49:27.629Z,2.23
2023-04-03T03:52:32.859Z,2.50
2023-04-03T03:55:36.916Z,2.70
2023-04-03T03:58:41.076Z,2.87
2023-04-03T04:01:45.697Z,3.30
2023-04-03T04:04:51.284Z,3.70
2023-04-03T04:07:56.636Z,7.00
2023-04-03T04:11:01.735Z,8.30
2023-04-03T04:14:06.325Z,6.77
2023-04-03T04:17:11.364Z,5.23
2023-04-03T04:20:15.156Z,5.83
2023-04-03T04:23:21.205Z,5.70
2023-04-03T04:26:26.646Z,4.43
2023-04-03T04:29:30.896Z,4.13
2023-04-03T04:32:34.964Z,3.90
2023-04-03T04:35:39.545Z,3.57
2023-04-03T04:38:45.001Z,3.53
2023-04-03T04:41:48.923Z,3.87
2023-04-03T04:44:52.785Z,4.17
2023-04-03T04:47:58.221Z,4.33
2023-04-03T04:51:03.161Z,4.37
2023-04-03T04:54:08.607Z,4.60
2023-04-03T04:57:12.785Z,5.23
2023-04-03T05:00:18.042Z,6.50
2023-04-03T05:03:22.420Z,8.33
2023-04-03T05:06:26.515Z,7.23
2023-04-03T05:09:33.354Z,7.10
2023-04-03T05:12:37.181Z,6.53
2023-04-03T05:15:42.427Z,7.83
2023-04-03T05:18:46.731Z,7.00
2023-04-03T05:21:56.059Z,6.93
2023-04-03T05:25:02.045Z,7.07
2023-04-03T05:28:05.795Z,6.43
2023-04-03T05:31:09.765Z,6.20
2023-04-03T05:34:14.205Z,6.30
2023-04-03T05:37:18.909Z,6.70
2023-04-03T05:40:24.764Z,6.53
2023-04-03T05:43:31.344Z,5.83
2023-04-03T05:46:35.551Z,5.73
2023-04-03T05:49:43.003Z,5.70
2023-04-03T05:52:52.410Z,6.53
2023-04-03T05:55:58.355Z,7.27
2023-04-03T05:59:03.242Z,6.30
2023-04-03T06:02:07.462Z,6.27
2023-04-03T06:05:14.482Z,6.93
2023-04-03T06:08:18.338Z,6.50
2023-04-03T06:11:24.021Z,7.80
2023-04-03T06:14:28.112Z,7.07
2023-04-03T06:17:32.368Z,7.70
2023-04-03T06:20:36.347Z,8.20
2023-04-03T06:23:41.881Z,7.27
2023-04-03T06:26:47.473Z,7.27
2023-04-03T06:29:51.163Z,10.57
2023-04-03T06:32:55.045Z,7.63
2023-04-03T06:36:00.535Z,7.40
2023-04-03T06:39:04.670Z,7.07
2023-04-03T06:42:09.954Z,6.43
2023-04-03T06:45:23.009Z,5.70
2023-04-03T06:48:26.813Z,6.40
2023-04-03T06:51:32.370Z,6.10
2023-04-03T06:54:36.142Z,5.83
2023-04-03T06:57:41.322Z,5.03
2023-04-03T07:00:45.075Z,5.97
2023-04-03T07:03:49.188Z,4.77
2023-04-03T07:06:53.702Z,4.90
2023-04-03T07:09:57.501Z,5.77
2023-04-03T07:13:03.047Z,4.57
2023-04-03T07:16:07.878Z,4.40
2023-04-03T07:19:11.753Z,4.30
2023-04-03T07:22:15.512Z,3.10
2023-04-03T07:25:19.369Z,3.37
2023-04-03T07:28:25.540Z,3.07
2023-04-03T07:31:29.649Z,2.50
2023-04-03T07:34:33.826Z,2.70
2023-04-03T07:37:37.765Z,2.90
2023-04-03T07:40:42.497Z,2.80
2023-04-03T07:43:48.181Z,3.03
2023-04-03T07:46:52.307Z,2.60
2023-04-03T07:49:56.005Z,3.33
2023-04-03T07:52:59.815Z,3.57
2023-04-03T07:56:04.011Z,3.20
2023-04-03T07:59:09.347Z,2.90
2023-04-03T08:02:13.720Z,2.93
2023-04-03T08:05:17.579Z,3.53
2023-04-03T08:08:23.410Z,3.60
2023-04-03T08:11:28.030Z,3.90
2023-04-03T08:14:35.945Z,3.20
2023-04-03T08:17:39.770Z,2.90
2023-04-03T08:20:43.753Z,2.90
2023-04-03T08:23:50.323Z,2.63
2023-04-03T08:26:54.242Z,3.60
2023-04-03T08:29:59.808Z,3.77
2023-04-03T08:33:03.950Z,4.63
2023-04-03T08:36:09.216Z,5.13
2023-04-03T08:39:13.493Z,6.00
2023-04-03T08:42:26.767Z,7.20
2023-04-03T08:45:44.587Z,6.63
2023-04-03T08:48:49.629Z,6.23
2023-04-03T08:51:55.144Z,5.77
2023-04-03T08:55:02.469Z,4.80
2023-04-03T08:58:08.950Z,3.70
2023-04-03T09:01:22.746Z,3.50
2023-04-03T09:04:30.539Z,3.17
2023-04-03T09:07:41.640Z,2.90
2023-04-03T09:10:46.227Z,2.87
2023-04-03T09:13:57.022Z,3.00
2023-04-03T09:17:06.166Z,3.13
2023-04-03T09:20:20.909Z,3.40
2023-04-03T09:23:30.747Z,3.50
2023-04-03T09:26:39.283Z,4.10
2023-04-03T09:29:46.256Z,3.40
2023-04-03T09:32:53.374Z,3.13
2023-04-03T09:35:57.336Z,2.33
2023-04-03T09:39:07.221Z,2.67
2023-04-03T09:42:21.659Z,2.73
2023-04-03T09:45:28.940Z,7.40
2023-04-03T09:48:34.209Z,3.10
2023-04-03T09:51:38.469Z,2.67
2023-04-03T09:54:42.410Z,2.70
2023-04-03T09:57:47.161Z,2.60
2023-04-03T10:00:57.050Z,2.50
2023-04-03T10:04:11.972Z,2.43
2023-04-03T10:07:37.749Z,2.90
2023-04-03T10:10:42.096Z,3.97
2023-04-03T10:14:00.832Z,3.43
2023-04-03T10:17:27.587Z,4.17
2023-04-03T10:20:39.559Z,3.20
2023-04-03T10:23:48.158Z,3.70
2023-04-03T10:26:59.640Z,2.90
2023-04-03T10:30:15.293Z,5.30
2023-04-03T10:33:42.615Z,4.20
2023-04-03T10:36:56.651Z,4.40
2023-04-03T10:40:05.363Z,4.90
2023-04-03T10:43:14.707Z,6.50
2023-04-03T10:46:24.703Z,7.50
2023-04-03T10:49:53.529Z,8.13
2023-04-03T10:53:12.904Z,6.33
2023-04-03T10:56:23.219Z,4.07
2023-04-03T10:59:32.943Z,5.17
2023-04-03T11:02:45.159Z,5.30
2023-04-03T11:05:52.741Z,7.37
2023-04-03T11:09:04.536Z,4.50
2023-04-03T11:12:15.189Z,4.07
2023-04-03T11:15:23.271Z,5.50
2023-04-03T11:18:35.315Z,3.00
2023-04-03T11:21:43.652Z,4.50
2023-04-03T11:25:00.108Z,4.30
2023-04-03T11:28:07.713Z,3.60
2023-04-03T11:31:27.590Z,3.50
2023-04-03T11:34:41.492Z,2.87
2023-04-03T11:37:48.862Z,3.03
2023-04-03T11:40:55.671Z,3.10
2023-04-03T11:44:02.153Z,3.00
2023-04-03T11:47:07.183Z,3.57
2023-04-03T11:50:45.435Z,3.70
2023-04-03T11:53:49.893Z,4.33
2023-04-03T11:56:55.392Z,4.63
2023-04-03T11:59:59.358Z,6.20
2023-04-03T12:03:03.455Z,7.47
2023-04-03T12:06:57.759Z,5.60
2023-04-03T12:10:03.818Z,5.50
2023-04-03T12:13:20.145Z,5.37
2023-04-03T12:16:26.190Z,5.63
2023-04-03T12:23:25.577Z,4.40
2023-04-03T12:26:42.098Z,4.27
2023-04-03T12:29:58.608Z,4.40
2023-04-03T12:33:27.782Z,3.97
2023-04-03T12:36:43.336Z,4.07
2023-04-03T12:40:05.579Z,4.60
2023-04-03T12:43:39.510Z,4.70
2023-04-03T12:46:48.682Z,4.33
2023-04-03T12:49:54.696Z,4.13
2023-04-03T12:53:04.803Z,4.00
2023-04-03T12:56:26.533Z,3.63
2023-04-03T12:59:30.442Z,4.20
2023-04-03T13:02:35.989Z,4.73
2023-04-03T13:05:40.967Z,4.13
2023-04-03T13:08:52.584Z,4.50
2023-04-03T13:12:03.333Z,5.17
2023-04-03T13:15:16.604Z,5.10
2023-04-03T13:18:28.837Z,5.57
2023-04-03T13:21:36.293Z,7.17
2023-04-03T13:24:41.701Z,6.20
2023-04-03T13:27:47.514Z,5.30
2023-04-03T13:31:03.060Z,5.77
2023-04-03T13:34:13.896Z,4.93
2023-04-03T13:37:25.941Z,5.37
2023-04-03T13:40:35.146Z,6.30
2023-04-03T13:43:47.002Z,6.30
2023-04-03T13:46:51.611Z,6.80
2023-04-03T13:50:04.394Z,6.33
2023-04-03T13:53:16.083Z,7.40
2023-04-03T13:56:26.649Z,7.20
2023-04-03T13:59:34.107Z,8.63
2023-04-03T14:02:42.194Z,8.27
2023-04-03T14:05:46.899Z,9.77
2023-04-03T14:08:51.252Z,9.90
2023-04-03T14:11:57.513Z,9.03
2023-04-03T14:15:04.241Z,7.80
2023-04-03T14:18:08.289Z,7.90
2023-04-03T14:21:14.748Z,6.80
2023-04-03T14:24:18.920Z,7.53
2023-04-03T14:27:24.499Z,6.80
2023-04-03T14:30:33.609Z,6.40
2023-04-03T14:33:37.981Z,7.07
2023-04-03T14:36:43.063Z,6.70
2023-04-03T14:39:47.749Z,7.93
2023-04-03T14:42:51.790Z,8.20
2023-04-03T14:45:57.115Z,8.87
2023-04-03T14:49:01.341Z,8.90
2023-04-03T14:52:05.579Z,8.93
2023-04-03T14:55:09.884Z,10.07
2023-04-03T14:58:17.541Z,9.17
2023-04-03T15:01:22.818Z,9.33
2023-04-03T15:04:27.268Z,10.17
2023-04-03T15:07:33.480Z,19.23
2023-04-03T15:10:37.492Z,9.50
2023-04-03T15:13:42.174Z,9.43
2023-04-03T15:16:47.598Z,8.57
2023-04-03T15:19:51.281Z,10.20
2023-04-03T15:22:57.405Z,9.63
2023-04-03T15:26:01.367Z,9.80
2023-04-03T15:29:06.097Z,10.63
2023-04-03T15:32:12.030Z,14.07
2023-04-03T15:35:15.993Z,12.50
2023-04-03T15:38:19.712Z,10.07
2023-04-03T15:41:23.443Z,9.13
2023-04-03T15:44:27.385Z,11.10
2023-04-03T15:47:32.833Z,9.63
2023-04-03T15:50:37.512Z,9.73
2023-04-03T15:53:41.551Z,30.17
2023-04-03T15:56:45.246Z,25.37
2023-04-03T15:59:49.020Z,25.10
2023-04-03T16:02:58.726Z,12.37
2023-04-03T16:06:03.828Z,16.80
2023-04-03T16:09:07.791Z,12.13
2023-04-03T16:12:11.762Z,13.27
2023-04-03T16:15:15.633Z,11.23
2023-04-03T16:18:21.046Z,10.90
2023-04-03T16:21:25.910Z,12.53
2023-04-03T16:24:29.721Z,14.03
2023-04-03T16:27:33.488Z,10.57
2023-04-03T16:30:37.305Z,9.73
2023-04-03T16:33:42.597Z,11.20
2023-04-03T16:36:46.465Z,7.37
2023-04-03T16:39:50.616Z,10.37
2023-04-03T16:42:54.409Z,7.57
2023-04-03T16:45:58.124Z,8.33
2023-04-03T16:49:03.301Z,5.80
2023-04-03T16:52:07.853Z,7.33
2023-04-03T16:55:11.663Z,5.73
2023-04-03T16:58:16.064Z,5.33
2023-04-03T17:01:21.367Z,6.63
2023-04-03T17:04:27.322Z,6.30
2023-04-03T17:07:31.055Z,6.83
2023-04-03T17:10:36.618Z,7.47
2023-04-03T17:13:40.691Z,7.03
2023-04-03T17:16:44.572Z,7.40
2023-04-03T17:19:50.287Z,8.47
2023-04-03T17:22:54.096Z,8.33
2023-04-03T17:25:58.037Z,8.17
2023-04-03T17:29:01.798Z,6.37
2023-04-03T17:32:05.821Z,5.70
2023-04-03T17:35:11.982Z,6.47
2023-04-03T17:38:15.911Z,4.73
2023-04-03T17:41:19.536Z,4.73
2023-04-03T17:44:23.953Z,4.03
2023-04-03T17:47:27.859Z,4.17
2023-04-03T17:50:33.315Z,3.97
2023-04-03T17:53:37.124Z,3.97
2023-04-03T17:56:43.808Z,4.07
2023-04-03T17:59:47.713Z,3.80
2023-04-03T18:02:54.534Z,4.50
2023-04-03T18:05:59.828Z,4.83
2023-04-03T18:09:07.521Z,4.20
2023-04-03T18:12:11.793Z,4.27
2023-04-03T18:15:15.761Z,5.27
2023-04-03T18:18:19.572Z,5.50
2023-04-03T18:21:24.783Z,5.80
2023-04-03T18:24:29.058Z,5.53
2023-04-03T18:27:32.919Z,7.07
2023-04-03T18:30:36.961Z,7.17
2023-04-03T18:33:40.730Z,6.70
2023-04-03T18:36:46.313Z,8.17
2023-04-03T18:39:50.150Z,7.23
2023-04-03T18:42:54.049Z,7.60
2023-04-03T18:45:58.049Z,7.33
2023-04-03T18:49:02.031Z,7.87
2023-04-03T18:52:07.269Z,7.87
2023-04-03T18:55:14.125Z,6.87
2023-04-03T18:58:17.907Z,6.87
2023-04-03T19:01:21.924Z,11.33
2023-04-03T19:04:26.207Z,8.27
2023-04-03T19:07:31.519Z,7.43
2023-04-03T19:10:35.170Z,7.50
2023-04-03T19:13:47.060Z,8.30
2023-04-03T19:17:04.388Z,7.60
2023-04-03T19:20:09.879Z,7.10
2023-04-03T19:23:15.189Z,7.47
2023-04-03T19:26:19.167Z,8.80
2023-04-03T19:29:23.233Z,7.80
2023-04-03T19:32:28.237Z,7.43
2023-04-03T19:35:32.060Z,7.43
2023-04-03T19:38:37.615Z,8.77
2023-04-03T19:41:45.302Z,8.33
2023-04-03T19:44:50.066Z,8.30
2023-04-03T19:47:54.018Z,7.70
2023-04-03T19:50:57.683Z,7.70
2023-04-03T19:54:02.792Z,7.53
2023-04-03T19:57:06.799Z,7.60
2023-04-03T20:00:11.722Z,7.77
2023-04-03T20:03:15.641Z,7.43
2023-04-03T20:06:19.314Z,7.80
2023-04-03T20:09:24.540Z,7.80
2023-04-03T20:12:28.276Z,8.00
2023-04-03T20:15:40.433Z,7.73
2023-04-03T20:18:44.237Z,7.77
2023-04-03T20:21:48.055Z,8.53
2023-04-03T20:24:53.294Z,7.43
2023-04-03T20:27:57.157Z,8.30
2023-04-03T20:31:02.643Z,8.23
2023-04-03T20:34:06.401Z,8.13
2023-04-03T20:37:10.727Z,8.77
2023-04-03T20:40:16.294Z,7.80
2023-04-03T20:43:21.913Z,8.10
2023-04-03T20:46:38.319Z,8.83
2023-04-03T20:49:53.846Z,8.30
2023-04-03T20:52:59.162Z,8.23
2023-04-03T20:56:04.306Z,9.10
2023-04-03T20:59:08.619Z,10.80
2023-04-03T21:02:12.873Z,9.43
2023-04-03T21:05:18.332Z,8.60
2023-04-03T21:08:59.690Z,8.73
2023-04-03T21:12:40.631Z,9.53
2023-04-03T21:15:55.098Z,9.50
2023-04-03T21:19:16.554Z,9.77
2023-04-03T21:22:22.164Z,9.70
2023-04-03T21:25:25.975Z,9.87
2023-04-03T21:28:29.673Z,9.57
2023-04-03T21:31:48.674Z,9.67
2023-04-03T21:34:53.769Z,9.23
2023-04-03T21:37:58.076Z,9.07
2023-04-03T21:41:01.802Z,9.10
2023-04-03T21:44:05.616Z,9.77
2023-04-03T21:47:09.339Z,9.13
2023-04-03T21:50:14.649Z,8.70
2023-04-03T21:53:19.733Z,10.03
2023-04-03T21:56:24.547Z,10.27
2023-04-03T21:59:28.346Z,9.70
2023-04-03T22:02:33.928Z,11.43
2023-04-03T22:05:39.083Z,8.43
2023-04-03T22:08:43.017Z,10.27
2023-04-03T22:11:46.942Z,9.43
2023-04-03T22:14:51.636Z,10.17
2023-04-03T22:17:55.418Z,10.30
2023-04-03T22:21:00.618Z,10.67
2023-04-03T22:24:04.692Z,9.27
2023-04-03T22:27:08.248Z,10.87
2023-04-03T22:30:13.045Z,10.53
2023-04-03T22:33:16.756Z,11.63
2023-04-03T22:36:21.976Z,10.00
2023-04-03T22:39:26.129Z,9.23
2023-04-03T22:42:30.058Z,9.83
2023-04-03T22:45:33.928Z,10.33
2023-04-03T22:48:38.855Z,10.37
2023-04-03T22:51:43.932Z,11.50
2023-04-03T22:54:47.828Z,9.90
2023-04-03T22:57:51.807Z,10.03
2023-04-03T23:00:56.083Z,10.57
2023-04-03T23:03:59.708Z,11.63
2023-04-03T23:07:05.399Z,10.90
2023-04-03T23:10:09.768Z,11.33
2023-04-03T23:13:13.370Z,10.67
2023-04-03T23:16:17.554Z,11.60
2023-04-03T23:19:21.158Z,10.53
2023-04-03T23:22:26.097Z,11.20
2023-04-03T23:25:29.530Z,11.00
2023-04-03T23:28:33.118Z,10.93
2023-04-03T23:31:36.786Z,11.30
2023-04-03T23:34:40.679Z,10.83
2023-04-03T23:37:45.616Z,11.63
2023-04-03T23:40:49.187Z,11.57
2023-04-03T23:43:53.073Z,11.20
2023-04-03T23:46:58.231Z,11.00
2023-04-03T23:50:01.669Z,11.27
2023-04-03T23:53:06.823Z,11.50
2023-04-03T23:56:13.377Z,11.10
2023-04-03T23:59:16.905Z,11.33
